<?xml version="1.0" encoding="UTF-8" standalone="no" ?>
<gpx xmlns="http://www.topografix.com/GPX/1/1" xmlns:xsi="http://www.w3.org/2001/XMLSchema-instance" xsi:schemaLocation="http://www.topografix.com/GPX/1/1 http://www.topografix.com/GPX/1/1/gpx.xsd" version="1.1" creator="VisuGPX - https://www.visugpx.com">
  <metadata>
    <name>Veigy Juvigny boucle</name>
  </metadata>
  <trk>
    <name><![CDATA[Veigy Juvigny boucle]]></name>
    <trkseg>
      <trkpt lat="46.26821" lon="6.25661">
        <ele>430</ele>
      </trkpt>
      <trkpt lat="46.26847" lon="6.25578">
        <ele>432</ele>
      </trkpt>
      <trkpt lat="46.26739" lon="6.25451">
        <ele>431</ele>
      </trkpt>
      <trkpt lat="46.26631" lon="6.25346">
        <ele>433</ele>
      </trkpt>
      <trkpt lat="46.26432" lon="6.2522">
        <ele>435</ele>
      </trkpt>
      <trkpt lat="46.2627" lon="6.24969">
        <ele>433</ele>
      </trkpt>
      <trkpt lat="46.26149" lon="6.2478">
        <ele>430</ele>
      </trkpt>
      <trkpt lat="46.26155" lon="6.24695">
        <ele>429</ele>
      </trkpt>
      <trkpt lat="46.26059" lon="6.24491">
        <ele>429</ele>
      </trkpt>
      <trkpt lat="46.25968" lon="6.24314">
        <ele>429</ele>
        <time>2020-12-03T11:28:26Z</time>
      </trkpt>
      <trkpt lat="46.25924" lon="6.24399">
        <ele>428</ele>
        <time>2020-12-03T11:28:43Z</time>
      </trkpt>
      <trkpt lat="46.25886" lon="6.24434">
        <ele>429</ele>
        <time>2020-12-03T11:28:54Z</time>
      </trkpt>
      <trkpt lat="46.25706" lon="6.2431">
        <ele>433</ele>
        <time>2020-12-03T11:29:40Z</time>
      </trkpt>
      <trkpt lat="46.25696" lon="6.24314">
        <ele>433</ele>
        <time>2020-12-03T11:29:43Z</time>
      </trkpt>
      <trkpt lat="46.25609" lon="6.24519">
        <ele>437</ele>
        <time>2020-12-03T11:30:22Z</time>
      </trkpt>
      <trkpt lat="46.25316" lon="6.25204">
        <ele>448</ele>
        <time>2020-12-03T11:32:32Z</time>
      </trkpt>
      <trkpt lat="46.25168" lon="6.25536">
        <ele>452</ele>
        <time>2020-12-03T11:33:36Z</time>
      </trkpt>
      <trkpt lat="46.25152" lon="6.25665">
        <ele>455</ele>
      </trkpt>
      <trkpt lat="46.25233" lon="6.25776">
        <ele>457</ele>
        <time>2020-12-03T11:34:24Z</time>
      </trkpt>
      <trkpt lat="46.25259" lon="6.25822">
        <ele>458</ele>
        <time>2020-12-03T11:34:33Z</time>
      </trkpt>
      <trkpt lat="46.25152" lon="6.26079">
        <ele>459</ele>
        <time>2020-12-03T11:35:22Z</time>
      </trkpt>
      <trkpt lat="46.25103" lon="6.26282">
        <ele>459</ele>
        <time>2020-12-03T11:35:57Z</time>
      </trkpt>
      <trkpt lat="46.24946" lon="6.26516">
        <ele>462</ele>
        <time>2020-12-03T11:36:49Z</time>
      </trkpt>
      <trkpt lat="46.24787" lon="6.26667">
        <ele>462</ele>
        <time>2020-12-03T11:37:35Z</time>
      </trkpt>
      <trkpt lat="46.24799" lon="6.2676">
        <ele>462</ele>
        <time>2020-12-03T11:37:52Z</time>
      </trkpt>
      <trkpt lat="46.24785" lon="6.26781">
        <ele>462</ele>
        <time>2020-12-03T11:37:57Z</time>
      </trkpt>
      <trkpt lat="46.24847" lon="6.27019">
        <ele>462</ele>
        <time>2020-12-03T11:38:39Z</time>
      </trkpt>
      <trkpt lat="46.24947" lon="6.27312">
        <ele>463</ele>
        <time>2020-12-03T11:39:31Z</time>
      </trkpt>
      <trkpt lat="46.25002" lon="6.27435">
        <ele>465</ele>
        <time>2020-12-03T11:39:55Z</time>
      </trkpt>
      <trkpt lat="46.25041" lon="6.27484">
        <ele>467</ele>
        <time>2020-12-03T11:40:08Z</time>
      </trkpt>
      <trkpt lat="46.25078" lon="6.27614">
        <ele>469</ele>
        <time>2020-12-03T11:40:30Z</time>
      </trkpt>
      <trkpt lat="46.25025" lon="6.27715">
        <ele>469</ele>
        <time>2020-12-03T11:40:51Z</time>
      </trkpt>
      <trkpt lat="46.24991" lon="6.27722">
        <ele>469</ele>
        <time>2020-12-03T11:41:00Z</time>
      </trkpt>
      <trkpt lat="46.24923" lon="6.27804">
        <ele>472</ele>
        <time>2020-12-03T11:41:20Z</time>
      </trkpt>
      <trkpt lat="46.24858" lon="6.27886">
        <ele>473</ele>
        <time>2020-12-03T11:41:40Z</time>
      </trkpt>
      <trkpt lat="46.24606" lon="6.28263">
        <ele>482</ele>
        <time>2020-12-03T11:43:05Z</time>
      </trkpt>
      <trkpt lat="46.2465" lon="6.28359">
        <ele>485</ele>
        <time>2020-12-03T11:43:24Z</time>
      </trkpt>
      <trkpt lat="46.24644" lon="6.28364">
        <ele>485</ele>
        <time>2020-12-03T11:43:26Z</time>
      </trkpt>
      <trkpt lat="46.24595" lon="6.28435">
        <ele>483</ele>
        <time>2020-12-03T11:43:43Z</time>
      </trkpt>
      <trkpt lat="46.24552" lon="6.28544">
        <ele>485</ele>
        <time>2020-12-03T11:44:05Z</time>
      </trkpt>
      <trkpt lat="46.24434" lon="6.28709">
        <ele>493</ele>
        <time>2020-12-03T11:44:43Z</time>
      </trkpt>
      <trkpt lat="46.24385" lon="6.28772">
        <ele>496</ele>
        <time>2020-12-03T11:44:59Z</time>
      </trkpt>
      <trkpt lat="46.24349" lon="6.28825">
        <ele>498</ele>
        <time>2020-12-03T11:45:11Z</time>
      </trkpt>
      <trkpt lat="46.24274" lon="6.28991">
        <ele>499</ele>
        <time>2020-12-03T11:45:43Z</time>
      </trkpt>
      <trkpt lat="46.24221" lon="6.28998">
        <ele>500</ele>
        <time>2020-12-03T11:45:57Z</time>
      </trkpt>
      <trkpt lat="46.24121" lon="6.28833">
        <ele>501</ele>
        <time>2020-12-03T11:46:33Z</time>
      </trkpt>
      <trkpt lat="46.24048" lon="6.28649">
        <ele>499</ele>
        <time>2020-12-03T11:47:07Z</time>
      </trkpt>
      <trkpt lat="46.24003" lon="6.28571">
        <ele>494</ele>
        <time>2020-12-03T11:47:23Z</time>
      </trkpt>
      <trkpt lat="46.23987" lon="6.28569">
        <ele>493</ele>
        <time>2020-12-03T11:47:27Z</time>
      </trkpt>
      <trkpt lat="46.23971" lon="6.28777">
        <ele>499</ele>
        <time>2020-12-03T11:48:01Z</time>
      </trkpt>
      <trkpt lat="46.23964" lon="6.28777">
        <ele>499</ele>
        <time>2020-12-03T11:48:23Z</time>
      </trkpt>
      <trkpt lat="46.2393" lon="6.2876">
        <ele>499</ele>
        <time>2020-12-03T11:48:33Z</time>
      </trkpt>
      <trkpt lat="46.23866" lon="6.28638">
        <ele>495</ele>
        <time>2020-12-03T11:48:58Z</time>
      </trkpt>
      <trkpt lat="46.23813" lon="6.28534">
        <ele>493</ele>
        <time>2020-12-03T11:49:19Z</time>
      </trkpt>
      <trkpt lat="46.238" lon="6.28543">
        <ele>495</ele>
        <time>2020-12-03T11:49:23Z</time>
      </trkpt>
      <trkpt lat="46.23759" lon="6.28621">
        <ele>502</ele>
        <time>2020-12-03T11:49:39Z</time>
      </trkpt>
      <trkpt lat="46.23683" lon="6.2853">
        <ele>499</ele>
        <time>2020-12-03T11:50:02Z</time>
      </trkpt>
      <trkpt lat="46.23573" lon="6.28415">
        <ele>496</ele>
        <time>2020-12-03T11:50:34Z</time>
      </trkpt>
      <trkpt lat="46.23503" lon="6.28344">
        <ele>499</ele>
        <time>2020-12-03T11:50:54Z</time>
      </trkpt>
      <trkpt lat="46.23441" lon="6.28255">
        <ele>496</ele>
        <time>2020-12-03T11:51:15Z</time>
      </trkpt>
      <trkpt lat="46.23422" lon="6.28222">
        <ele>496</ele>
        <time>2020-12-03T11:51:22Z</time>
      </trkpt>
      <trkpt lat="46.23361" lon="6.28139">
        <ele>491</ele>
        <time>2020-12-03T11:51:42Z</time>
      </trkpt>
      <trkpt lat="46.23344" lon="6.28144">
        <ele>489</ele>
        <time>2020-12-03T11:51:48Z</time>
      </trkpt>
      <trkpt lat="46.23343" lon="6.28149">
        <ele>489</ele>
        <time>2020-12-03T11:51:49Z</time>
      </trkpt>
      <trkpt lat="46.23318" lon="6.28267">
        <ele>489</ele>
        <time>2020-12-03T11:52:09Z</time>
      </trkpt>
      <trkpt lat="46.23249" lon="6.28381">
        <ele>496</ele>
        <time>2020-12-03T11:52:34Z</time>
      </trkpt>
      <trkpt lat="46.23193" lon="6.28462">
        <ele>499</ele>
        <time>2020-12-03T11:52:53Z</time>
      </trkpt>
      <trkpt lat="46.23168" lon="6.28444">
        <ele>499</ele>
        <time>2020-12-03T11:53:00Z</time>
      </trkpt>
      <trkpt lat="46.23085" lon="6.28608">
        <ele>502</ele>
        <time>2020-12-03T11:53:33Z</time>
      </trkpt>
      <trkpt lat="46.23013" lon="6.28557">
        <ele>505</ele>
        <time>2020-12-03T11:53:52Z</time>
      </trkpt>
      <trkpt lat="46.22966" lon="6.28517">
        <ele>505</ele>
        <time>2020-12-03T11:54:05Z</time>
      </trkpt>
      <trkpt lat="46.22832" lon="6.28398">
        <ele>506</ele>
        <time>2020-12-03T11:54:42Z</time>
      </trkpt>
      <trkpt lat="46.22817" lon="6.28378">
        <ele>506</ele>
        <time>2020-12-03T11:54:47Z</time>
      </trkpt>
      <trkpt lat="46.22798" lon="6.28377">
        <ele>506</ele>
        <time>2020-12-03T11:54:51Z</time>
      </trkpt>
      <trkpt lat="46.2272" lon="6.28332">
        <ele>506</ele>
      </trkpt>
      <trkpt lat="46.22757" lon="6.28173">
        <ele>505</ele>
      </trkpt>
      <trkpt lat="46.22813" lon="6.28051">
        <ele>501</ele>
        <time>2020-12-03T11:56:37Z</time>
      </trkpt>
      <trkpt lat="46.2276" lon="6.28004">
        <ele>500</ele>
        <time>2020-12-03T11:56:52Z</time>
      </trkpt>
      <trkpt lat="46.22622" lon="6.27913">
        <ele>499</ele>
        <time>2020-12-03T11:57:27Z</time>
      </trkpt>
      <trkpt lat="46.22577" lon="6.27932">
        <ele>499</ele>
      </trkpt>
      <trkpt lat="46.22539" lon="6.28113">
        <ele>500</ele>
        <time>2020-12-03T11:58:48Z</time>
      </trkpt>
      <trkpt lat="46.22511" lon="6.28202">
        <ele>503</ele>
        <time>2020-12-03T11:59:05Z</time>
      </trkpt>
      <trkpt lat="46.22388" lon="6.28121">
        <ele>503</ele>
        <time>2020-12-03T11:59:36Z</time>
      </trkpt>
      <trkpt lat="46.22255" lon="6.28004">
        <ele>508</ele>
        <time>2020-12-03T12:00:13Z</time>
      </trkpt>
      <trkpt lat="46.22124" lon="6.27871">
        <ele>509</ele>
        <time>2020-12-03T12:00:50Z</time>
      </trkpt>
      <trkpt lat="46.2204" lon="6.27768">
        <ele>502</ele>
        <time>2020-12-03T12:01:16Z</time>
      </trkpt>
      <trkpt lat="46.21927" lon="6.27533">
        <ele>498</ele>
        <time>2020-12-03T12:02:02Z</time>
      </trkpt>
      <trkpt lat="46.21616" lon="6.2678">
        <ele>483</ele>
        <time>2020-12-03T12:04:24Z</time>
      </trkpt>
      <trkpt lat="46.21619" lon="6.26735">
        <ele>483</ele>
        <time>2020-12-03T12:04:32Z</time>
      </trkpt>
      <trkpt lat="46.21556" lon="6.26634">
        <ele>481</ele>
        <time>2020-12-03T12:04:56Z</time>
      </trkpt>
      <trkpt lat="46.21518" lon="6.2648">
        <ele>479</ele>
        <time>2020-12-03T12:05:22Z</time>
      </trkpt>
      <trkpt lat="46.2146" lon="6.26395">
        <ele>478</ele>
        <time>2020-12-03T12:05:41Z</time>
      </trkpt>
      <trkpt lat="46.21365" lon="6.2635">
        <ele>478</ele>
        <time>2020-12-03T12:06:05Z</time>
      </trkpt>
      <trkpt lat="46.21274" lon="6.26324">
        <ele>480</ele>
        <time>2020-12-03T12:06:27Z</time>
      </trkpt>
      <trkpt lat="46.21272" lon="6.26325">
        <ele>480</ele>
        <time>2020-12-03T12:06:34Z</time>
      </trkpt>
      <trkpt lat="46.2125" lon="6.26309">
        <ele>481</ele>
        <time>2020-12-03T12:06:40Z</time>
      </trkpt>
      <trkpt lat="46.21208" lon="6.26245">
        <ele>481</ele>
        <time>2020-12-03T12:06:54Z</time>
      </trkpt>
      <trkpt lat="46.21178" lon="6.26272">
        <ele>479</ele>
        <time>2020-12-03T12:07:03Z</time>
      </trkpt>
      <trkpt lat="46.21089" lon="6.26406">
        <ele>474</ele>
        <time>2020-12-03T12:07:33Z</time>
      </trkpt>
      <trkpt lat="46.21056" lon="6.26462">
        <ele>472</ele>
        <time>2020-12-03T12:07:37Z</time>
      </trkpt>
      <trkpt lat="46.21082" lon="6.26554">
        <ele>468</ele>
        <time>2020-12-03T12:07:43Z</time>
      </trkpt>
      <trkpt lat="46.21153" lon="6.26647">
        <ele>462</ele>
        <time>2020-12-03T12:07:56Z</time>
      </trkpt>
      <trkpt lat="46.21275" lon="6.26828">
        <ele>466</ele>
        <time>2020-12-03T12:08:08Z</time>
      </trkpt>
      <trkpt lat="46.21226" lon="6.26863">
        <ele>463</ele>
      </trkpt>
      <trkpt lat="46.21217" lon="6.26931">
        <ele>461</ele>
      </trkpt>
      <trkpt lat="46.21217" lon="6.26992">
        <ele>460</ele>
      </trkpt>
      <trkpt lat="46.21198" lon="6.27036">
        <ele>459</ele>
      </trkpt>
      <trkpt lat="46.21251" lon="6.27118">
        <ele>467</ele>
        <time>2020-12-03T12:15:11Z</time>
      </trkpt>
      <trkpt lat="46.21293" lon="6.27144">
        <ele>470</ele>
        <time>2020-12-03T12:15:17Z</time>
      </trkpt>
      <trkpt lat="46.21303" lon="6.2719">
        <ele>476</ele>
        <time>2020-12-03T12:15:32Z</time>
      </trkpt>
      <trkpt lat="46.21347" lon="6.27271">
        <ele>483</ele>
        <time>2020-12-03T12:15:43Z</time>
      </trkpt>
      <trkpt lat="46.21361" lon="6.27327">
        <ele>487</ele>
        <time>2020-12-03T12:16:06Z</time>
      </trkpt>
      <trkpt lat="46.21363" lon="6.27648">
        <ele>489</ele>
        <time>2020-12-03T12:16:09Z</time>
      </trkpt>
      <trkpt lat="46.21216" lon="6.27557">
        <ele>486</ele>
        <time>2020-12-03T12:16:23Z</time>
      </trkpt>
      <trkpt lat="46.21204" lon="6.27572">
        <ele>484</ele>
        <time>2020-12-03T12:16:36Z</time>
      </trkpt>
      <trkpt lat="46.21266" lon="6.27784">
        <ele>474</ele>
        <time>2020-12-03T12:17:02Z</time>
      </trkpt>
      <trkpt lat="46.21275" lon="6.27856">
        <ele>472</ele>
        <time>2020-12-03T12:17:58Z</time>
      </trkpt>
      <trkpt lat="46.21258" lon="6.279">
        <ele>468</ele>
        <time>2020-12-03T12:18:09Z</time>
      </trkpt>
      <trkpt lat="46.2126" lon="6.27969">
        <ele>467</ele>
        <time>2020-12-03T12:18:17Z</time>
      </trkpt>
      <trkpt lat="46.21281" lon="6.28019">
        <ele>468</ele>
        <time>2020-12-03T12:18:23Z</time>
      </trkpt>
      <trkpt lat="46.21326" lon="6.28087">
        <ele>467</ele>
        <time>2020-12-03T12:18:39Z</time>
      </trkpt>
      <trkpt lat="46.21321" lon="6.2813">
        <ele>465</ele>
        <time>2020-12-03T12:19:02Z</time>
      </trkpt>
      <trkpt lat="46.21318" lon="6.28146">
        <ele>465</ele>
      </trkpt>
      <trkpt lat="46.21362" lon="6.28162">
        <ele>467</ele>
      </trkpt>
      <trkpt lat="46.21425" lon="6.28222">
        <ele>468</ele>
      </trkpt>
      <trkpt lat="46.21427" lon="6.28313">
        <ele>463</ele>
        <time>2020-12-03T12:26:34Z</time>
      </trkpt>
      <trkpt lat="46.21457" lon="6.2838">
        <ele>463</ele>
      </trkpt>
      <trkpt lat="46.21477" lon="6.28503">
        <ele>464</ele>
      </trkpt>
      <trkpt lat="46.21556" lon="6.28765">
        <ele>468</ele>
        <time>2020-12-03T12:28:04Z</time>
      </trkpt>
      <trkpt lat="46.21753" lon="6.2918">
        <ele>471</ele>
        <time>2020-12-03T12:29:28Z</time>
      </trkpt>
      <trkpt lat="46.21758" lon="6.29361">
        <ele>474</ele>
        <time>2020-12-03T12:29:50Z</time>
      </trkpt>
      <trkpt lat="46.21832" lon="6.29488">
        <ele>475</ele>
      </trkpt>
      <trkpt lat="46.21872" lon="6.29594">
        <ele>480</ele>
        <time>2020-12-03T12:30:35Z</time>
      </trkpt>
      <trkpt lat="46.21929" lon="6.29698">
        <ele>482</ele>
        <time>2020-12-03T12:30:57Z</time>
      </trkpt>
      <trkpt lat="46.22008" lon="6.29801">
        <ele>489</ele>
        <time>2020-12-03T12:31:22Z</time>
      </trkpt>
      <trkpt lat="46.22083" lon="6.29828">
        <ele>486</ele>
      </trkpt>
      <trkpt lat="46.22155" lon="6.29898">
        <ele>486</ele>
        <time>2020-12-03T12:32:00Z</time>
      </trkpt>
      <trkpt lat="46.22333" lon="6.30037">
        <ele>493</ele>
        <time>2020-12-03T12:32:47Z</time>
      </trkpt>
      <trkpt lat="46.22385" lon="6.30098">
        <ele>498</ele>
      </trkpt>
      <trkpt lat="46.22444" lon="6.3014">
        <ele>499</ele>
        <time>2020-12-03T12:33:18Z</time>
      </trkpt>
      <trkpt lat="46.22486" lon="6.30159">
        <ele>498</ele>
      </trkpt>
      <trkpt lat="46.22563" lon="6.30215">
        <ele>499</ele>
        <time>2020-12-03T12:33:49Z</time>
      </trkpt>
      <trkpt lat="46.22587" lon="6.30209">
        <ele>499</ele>
        <time>2020-12-03T12:33:54Z</time>
      </trkpt>
      <trkpt lat="46.22676" lon="6.30272">
        <ele>497</ele>
        <time>2020-12-03T12:34:18Z</time>
      </trkpt>
      <trkpt lat="46.22865" lon="6.30401">
        <ele>497</ele>
        <time>2020-12-03T12:35:06Z</time>
      </trkpt>
      <trkpt lat="46.23071" lon="6.30521">
        <ele>500</ele>
        <time>2020-12-03T12:35:58Z</time>
      </trkpt>
      <trkpt lat="46.23239" lon="6.30637">
        <ele>507</ele>
      </trkpt>
      <trkpt lat="46.23311" lon="6.30705">
        <ele>508</ele>
        <time>2020-12-03T12:37:02Z</time>
      </trkpt>
      <trkpt lat="46.23313" lon="6.3075">
        <ele>506</ele>
      </trkpt>
      <trkpt lat="46.23304" lon="6.30785">
        <ele>505</ele>
        <time>2020-12-03T12:37:15Z</time>
      </trkpt>
      <trkpt lat="46.2322" lon="6.30945">
        <ele>507</ele>
        <time>2020-12-03T12:37:48Z</time>
      </trkpt>
      <trkpt lat="46.23199" lon="6.30986">
        <ele>510</ele>
        <time>2020-12-03T12:37:58Z</time>
      </trkpt>
      <trkpt lat="46.23301" lon="6.31057">
        <ele>507</ele>
        <time>2020-12-03T12:38:25Z</time>
      </trkpt>
      <trkpt lat="46.23423" lon="6.31173">
        <ele>506</ele>
        <time>2020-12-03T12:38:59Z</time>
      </trkpt>
      <trkpt lat="46.23479" lon="6.31206">
        <ele>508</ele>
      </trkpt>
      <trkpt lat="46.2351" lon="6.31175">
        <ele>507</ele>
        <time>2020-12-03T12:39:22Z</time>
      </trkpt>
      <trkpt lat="46.23556" lon="6.31187">
        <ele>507</ele>
        <time>2020-12-03T12:39:33Z</time>
      </trkpt>
      <trkpt lat="46.23581" lon="6.31242">
        <ele>508</ele>
        <time>2020-12-03T12:39:44Z</time>
      </trkpt>
      <trkpt lat="46.23685" lon="6.31334">
        <ele>509</ele>
        <time>2020-12-03T12:40:13Z</time>
      </trkpt>
      <trkpt lat="46.23697" lon="6.31342">
        <ele>509</ele>
        <time>2020-12-03T12:40:16Z</time>
      </trkpt>
      <trkpt lat="46.23773" lon="6.31195">
        <ele>507</ele>
        <time>2020-12-03T12:40:46Z</time>
      </trkpt>
      <trkpt lat="46.23828" lon="6.31142">
        <ele>508</ele>
      </trkpt>
      <trkpt lat="46.23999" lon="6.31276">
        <ele>508</ele>
        <time>2020-12-03T12:41:47Z</time>
      </trkpt>
      <trkpt lat="46.24038" lon="6.3129">
        <ele>508</ele>
        <time>2020-12-03T12:41:56Z</time>
      </trkpt>
      <trkpt lat="46.24133" lon="6.31384">
        <ele>509</ele>
        <time>2020-12-03T12:42:23Z</time>
      </trkpt>
      <trkpt lat="46.24139" lon="6.31484">
        <ele>510</ele>
        <time>2020-12-03T12:42:43Z</time>
      </trkpt>
      <trkpt lat="46.2414" lon="6.31501">
        <ele>510</ele>
        <time>2020-12-03T12:42:46Z</time>
      </trkpt>
      <trkpt lat="46.24175" lon="6.31511">
        <ele>511</ele>
        <time>2020-12-03T12:42:54Z</time>
      </trkpt>
      <trkpt lat="46.24224" lon="6.31388">
        <ele>511</ele>
        <time>2020-12-03T12:43:17Z</time>
      </trkpt>
      <trkpt lat="46.24237" lon="6.3138">
        <ele>512</ele>
        <time>2020-12-03T12:43:21Z</time>
      </trkpt>
      <trkpt lat="46.24334" lon="6.3148">
        <ele>514</ele>
        <time>2020-12-03T12:43:49Z</time>
      </trkpt>
      <trkpt lat="46.24342" lon="6.3151">
        <ele>514</ele>
        <time>2020-12-03T12:43:54Z</time>
      </trkpt>
      <trkpt lat="46.2439" lon="6.31521">
        <ele>514</ele>
        <time>2020-12-03T12:44:05Z</time>
      </trkpt>
      <trkpt lat="46.24501" lon="6.31625">
        <ele>511</ele>
        <time>2020-12-03T12:44:36Z</time>
      </trkpt>
      <trkpt lat="46.24537" lon="6.31796">
        <ele>511</ele>
        <time>2020-12-03T12:45:05Z</time>
      </trkpt>
      <trkpt lat="46.24602" lon="6.31911">
        <ele>512</ele>
      </trkpt>
      <trkpt lat="46.24637" lon="6.32025">
        <ele>513</ele>
        <time>2020-12-03T12:45:50Z</time>
      </trkpt>
      <trkpt lat="46.24651" lon="6.32081">
        <ele>515</ele>
        <time>2020-12-03T12:46:00Z</time>
      </trkpt>
      <trkpt lat="46.24715" lon="6.32232">
        <ele>515</ele>
        <time>2020-12-03T12:46:28Z</time>
      </trkpt>
      <trkpt lat="46.24804" lon="6.32401">
        <ele>520</ele>
        <time>2020-12-03T12:47:03Z</time>
      </trkpt>
      <trkpt lat="46.2487" lon="6.32471">
        <ele>522</ele>
        <time>2020-12-03T12:47:22Z</time>
      </trkpt>
      <trkpt lat="46.24901" lon="6.3259">
        <ele>522</ele>
      </trkpt>
      <trkpt lat="46.24967" lon="6.32573">
        <ele>526</ele>
        <time>2020-12-03T12:47:55Z</time>
      </trkpt>
      <trkpt lat="46.24982" lon="6.32459">
        <ele>531</ele>
      </trkpt>
      <trkpt lat="46.25044" lon="6.32449">
        <ele>536</ele>
      </trkpt>
      <trkpt lat="46.2509" lon="6.32308">
        <ele>535</ele>
      </trkpt>
      <trkpt lat="46.25177" lon="6.32098">
        <ele>535</ele>
      </trkpt>
      <trkpt lat="46.25295" lon="6.31889">
        <ele>531</ele>
      </trkpt>
      <trkpt lat="46.25514" lon="6.31429">
        <ele>519</ele>
      </trkpt>
      <trkpt lat="46.2535" lon="6.31272">
        <ele>518</ele>
      </trkpt>
      <trkpt lat="46.25519" lon="6.30861">
        <ele>509</ele>
      </trkpt>
      <trkpt lat="46.25569" lon="6.30481">
        <ele>494</ele>
      </trkpt>
      <trkpt lat="46.25646" lon="6.30366">
        <ele>491</ele>
      </trkpt>
      <trkpt lat="46.25801" lon="6.29799">
        <ele>477</ele>
      </trkpt>
      <trkpt lat="46.25591" lon="6.29651">
        <ele>484</ele>
      </trkpt>
      <trkpt lat="46.25546" lon="6.29532">
        <ele>484</ele>
      </trkpt>
      <trkpt lat="46.25508" lon="6.29464">
        <ele>486</ele>
      </trkpt>
      <trkpt lat="46.25544" lon="6.29255">
        <ele>481</ele>
      </trkpt>
      <trkpt lat="46.25667" lon="6.29274">
        <ele>477</ele>
      </trkpt>
      <trkpt lat="46.2575" lon="6.29322">
        <ele>476</ele>
      </trkpt>
      <trkpt lat="46.2584" lon="6.2923">
        <ele>479</ele>
      </trkpt>
      <trkpt lat="46.25874" lon="6.29102">
        <ele>477</ele>
      </trkpt>
      <trkpt lat="46.25956" lon="6.28956">
        <ele>476</ele>
      </trkpt>
      <trkpt lat="46.25966" lon="6.28914">
        <ele>476</ele>
      </trkpt>
      <trkpt lat="46.25928" lon="6.28823">
        <ele>477</ele>
      </trkpt>
      <trkpt lat="46.2587" lon="6.28748">
        <ele>476</ele>
      </trkpt>
      <trkpt lat="46.25819" lon="6.28462">
        <ele>474</ele>
      </trkpt>
      <trkpt lat="46.2582" lon="6.28207">
        <ele>476</ele>
      </trkpt>
      <trkpt lat="46.25769" lon="6.28079">
        <ele>474</ele>
      </trkpt>
      <trkpt lat="46.26003" lon="6.27633">
        <ele>469</ele>
      </trkpt>
      <trkpt lat="46.25987" lon="6.27307">
        <ele>459</ele>
      </trkpt>
      <trkpt lat="46.25966" lon="6.27254">
        <ele>458</ele>
      </trkpt>
      <trkpt lat="46.25859" lon="6.27148">
        <ele>457</ele>
      </trkpt>
      <trkpt lat="46.25916" lon="6.26981">
        <ele>452</ele>
      </trkpt>
      <trkpt lat="46.25973" lon="6.26573">
        <ele>450</ele>
      </trkpt>
      <trkpt lat="46.2597" lon="6.26464">
        <ele>448</ele>
      </trkpt>
      <trkpt lat="46.26369" lon="6.26688">
        <ele>445</ele>
      </trkpt>
      <trkpt lat="46.26481" lon="6.26675">
        <ele>444</ele>
      </trkpt>
      <trkpt lat="46.26608" lon="6.26759">
        <ele>440</ele>
      </trkpt>
      <trkpt lat="46.26647" lon="6.2687">
        <ele>437</ele>
      </trkpt>
      <trkpt lat="46.26671" lon="6.26992">
        <ele>438</ele>
      </trkpt>
      <trkpt lat="46.26777" lon="6.27096">
        <ele>434</ele>
      </trkpt>
      <trkpt lat="46.26805" lon="6.26948">
        <ele>436</ele>
      </trkpt>
      <trkpt lat="46.2679" lon="6.26792">
        <ele>438</ele>
      </trkpt>
      <trkpt lat="46.26741" lon="6.26609">
        <ele>438</ele>
      </trkpt>
      <trkpt lat="46.26804" lon="6.26185">
        <ele>433</ele>
      </trkpt>
      <trkpt lat="46.26884" lon="6.25871">
        <ele>430</ele>
      </trkpt>
      <trkpt lat="46.26821" lon="6.25822">
        <ele>429</ele>
      </trkpt>
    </trkseg>
  </trk>
</gpx>